sensor_id;sensor_type;location;lat;lon;timestamp;pressure;altitude;pressure_sealevel;temperature;humidity
46690;BME280;32423;45.398;10.874;2023-03-31T00:02:48;100947.53;;;15.80;54.67
46690;BME280;32423;45.398;10.874;2023-03-31T00:05:40;100941.63;;;15.78;54.63
46690;BME280;32423;45.398;10.874;2023-03-31T00:08:34;100942.88;;;15.68;55.05
46690;BME280;32423;45.398;10.874;2023-03-31T00:11:29;100929.50;;;15.67;55.40
46690;BME280;32423;45.398;10.874;2023-03-31T00:14:21;100931.22;;;15.71;55.19
46690;BME280;32423;45.398;10.874;2023-03-31T00:17:13;100929.97;;;15.69;55.18
46690;BME280;32423;45.398;10.874;2023-03-31T00:20:05;100933.19;;;15.59;55.80
46690;BME280;32423;45.398;10.874;2023-03-31T00:22:58;100923.59;;;15.53;56.05
46690;BME280;32423;45.398;10.874;2023-03-31T00:25:50;100916.50;;;15.52;55.91
46690;BME280;32423;45.398;10.874;2023-03-31T00:28:42;100911.91;;;15.56;55.90
46690;BME280;32423;45.398;10.874;2023-03-31T00:31:33;100912.47;;;15.49;56.15
46690;BME280;32423;45.398;10.874;2023-03-31T00:34:25;100918.53;;;15.43;56.65
46690;BME280;32423;45.398;10.874;2023-03-31T00:37:18;100908.75;;;15.54;56.08
46690;BME280;32423;45.398;10.874;2023-03-31T00:40:10;100911.91;;;15.31;56.79
46690;BME280;32423;45.398;10.874;2023-03-31T00:43:02;100909.94;;;15.08;57.63
46690;BME280;32423;45.398;10.874;2023-03-31T00:45:51;100900.09;;;14.94;58.36
46690;BME280;32423;45.398;10.874;2023-03-31T00:48:53;100896.81;;;15.01;58.26
46690;BME280;32423;45.398;10.874;2023-03-31T00:51:45;100884.63;;;15.23;57.46
46690;BME280;32423;45.398;10.874;2023-03-31T00:54:38;100888.81;;;15.20;57.58
46690;BME280;32423;45.398;10.874;2023-03-31T00:57:31;100882.31;;;15.25;57.24
46690;BME280;32423;45.398;10.874;2023-03-31T01:00:24;100882.91;;;15.30;56.89
46690;BME280;32423;45.398;10.874;2023-03-31T01:03:15;100876.06;;;15.12;57.40
46690;BME280;32423;45.398;10.874;2023-03-31T01:06:07;100875.59;;;15.10;57.47
46690;BME280;32423;45.398;10.874;2023-03-31T01:09:00;100864.75;;;15.26;57.21
46690;BME280;32423;45.398;10.874;2023-03-31T01:11:54;100867.81;;;15.36;56.72
46690;BME280;32423;45.398;10.874;2023-03-31T01:14:46;100861.53;;;15.24;56.90
46690;BME280;32423;45.398;10.874;2023-03-31T01:17:37;100860.53;;;14.92;57.92
46690;BME280;32423;45.398;10.874;2023-03-31T01:20:36;100852.72;;;14.70;58.82
46690;BME280;32423;45.398;10.874;2023-03-31T01:44:32;100845.34;;;14.94;57.81
46690;BME280;32423;45.398;10.874;2023-03-31T01:47:28;100845.00;;;14.96;57.93
46690;BME280;32423;45.398;10.874;2023-03-31T01:50:37;100839.19;;;15.10;57.02
46690;BME280;32423;45.398;10.874;2023-03-31T01:53:35;100829.59;;;15.16;56.57
46690;BME280;32423;45.398;10.874;2023-03-31T01:56:31;100824.25;;;15.07;56.92
46690;BME280;32423;45.398;10.874;2023-03-31T01:59:30;100821.28;;;15.12;57.11
46690;BME280;32423;45.398;10.874;2023-03-31T02:02:35;100814.88;;;15.20;56.74
46690;BME280;32423;45.398;10.874;2023-03-31T02:05:33;100818.75;;;15.19;55.98
46690;BME280;32423;45.398;10.874;2023-03-31T02:08:30;100814.75;;;15.05;56.40
46690;BME280;32423;45.398;10.874;2023-03-31T02:11:23;100812.44;;;14.58;58.47
46690;BME280;32423;45.398;10.874;2023-03-31T02:14:16;100811.41;;;14.50;59.07
46690;BME280;32423;45.398;10.874;2023-03-31T02:17:09;100801.88;;;14.81;57.84
46690;BME280;32423;45.398;10.874;2023-03-31T02:20:03;100791.69;;;14.93;57.52
46690;BME280;32423;45.398;10.874;2023-03-31T02:22:57;100787.97;;;14.98;57.41
46690;BME280;32423;45.398;10.874;2023-03-31T02:25:50;100793.75;;;14.84;57.90
46690;BME280;32423;45.398;10.874;2023-03-31T02:28:44;100790.81;;;14.77;58.19
46690;BME280;32423;45.398;10.874;2023-03-31T02:31:48;100795.56;;;14.68;58.22
46690;BME280;32423;45.398;10.874;2023-03-31T02:34:43;100796.38;;;14.57;58.84
46690;BME280;32423;45.398;10.874;2023-03-31T02:40:27;100788.19;;;14.93;57.65
46690;BME280;32423;45.398;10.874;2023-03-31T02:43:18;100790.22;;;14.96;57.16
46690;BME280;32423;45.398;10.874;2023-03-31T02:46:10;100791.03;;;14.96;56.88
46690;BME280;32423;45.398;10.874;2023-03-31T02:49:02;100788.41;;;14.88;57.40
46690;BME280;32423;45.398;10.874;2023-03-31T02:58:17;100792.50;;;14.94;56.74
46690;BME280;32423;45.398;10.874;2023-03-31T03:01:22;100799.16;;;14.93;56.35
46690;BME280;32423;45.398;10.874;2023-03-31T03:07:42;100788.41;;;14.88;56.53
46690;BME280;32423;45.398;10.874;2023-03-31T03:13:52;100780.44;;;14.83;56.84
46690;BME280;32423;45.398;10.874;2023-03-31T03:16:47;100772.75;;;14.88;57.01
46690;BME280;32423;45.398;10.874;2023-03-31T03:19:40;100772.09;;;14.91;56.76
46690;BME280;32423;45.398;10.874;2023-03-31T03:22:30;100772.91;;;14.92;56.61
46690;BME280;32423;45.398;10.874;2023-03-31T03:25:22;100760.81;;;14.93;56.62
46690;BME280;32423;45.398;10.874;2023-03-31T03:28:14;100749.28;;;14.87;57.01
46690;BME280;32423;45.398;10.874;2023-03-31T03:31:06;100757.59;;;14.91;57.05
46690;BME280;32423;45.398;10.874;2023-03-31T03:33:58;100772.44;;;14.78;57.53
46690;BME280;32423;45.398;10.874;2023-03-31T03:36:50;100764.69;;;14.68;58.30
46690;BME280;32423;45.398;10.874;2023-03-31T03:39:42;100756.69;;;14.75;57.96
46690;BME280;32423;45.398;10.874;2023-03-31T03:42:34;100746.63;;;14.79;57.82
46690;BME280;32423;45.398;10.874;2023-03-31T03:45:26;100740.38;;;14.78;58.02
46690;BME280;32423;45.398;10.874;2023-03-31T03:48:18;100740.25;;;14.75;58.08
46690;BME280;32423;45.398;10.874;2023-03-31T03:51:10;100748.81;;;14.73;58.09
46690;BME280;32423;45.398;10.874;2023-03-31T03:54:02;100741.16;;;14.79;57.95
46690;BME280;32423;45.398;10.874;2023-03-31T03:56:54;100733.31;;;14.77;57.93
46690;BME280;32423;45.398;10.874;2023-03-31T03:59:47;100727.94;;;14.81;57.82
46690;BME280;32423;45.398;10.874;2023-03-31T04:02:39;100737.63;;;14.78;57.87
46690;BME280;32423;45.398;10.874;2023-03-31T04:05:31;100743.47;;;14.77;58.12
46690;BME280;32423;45.398;10.874;2023-03-31T04:08:23;100741.16;;;14.79;58.23
46690;BME280;32423;45.398;10.874;2023-03-31T04:11:16;100742.78;;;14.80;58.22
46690;BME280;32423;45.398;10.874;2023-03-31T04:14:08;100745.06;;;14.78;58.28
46690;BME280;32423;45.398;10.874;2023-03-31T04:17:00;100743.91;;;14.79;58.15
46690;BME280;32423;45.398;10.874;2023-03-31T04:19:52;100743.00;;;14.75;58.22
46690;BME280;32423;45.398;10.874;2023-03-31T04:22:45;100741.06;;;14.75;58.20
46690;BME280;32423;45.398;10.874;2023-03-31T04:25:37;100741.53;;;14.77;58.17
46690;BME280;32423;45.398;10.874;2023-03-31T04:28:29;100730.00;;;14.72;58.33
46690;BME280;32423;45.398;10.874;2023-03-31T04:31:22;100728.41;;;14.71;58.42
46690;BME280;32423;45.398;10.874;2023-03-31T04:34:15;100735.47;;;14.72;58.46
46690;BME280;32423;45.398;10.874;2023-03-31T04:37:07;100738.22;;;14.72;58.33
46690;BME280;32423;45.398;10.874;2023-03-31T04:39:59;100720.66;;;14.73;58.46
46690;BME280;32423;45.398;10.874;2023-03-31T04:42:55;100710.47;;;14.73;58.54
46690;BME280;32423;45.398;10.874;2023-03-31T04:45:47;100720.41;;;14.66;58.74
46690;BME280;32423;45.398;10.874;2023-03-31T04:48:39;100713.69;;;14.63;58.80
46690;BME280;32423;45.398;10.874;2023-03-31T04:51:28;100722.03;;;14.42;59.42
46690;BME280;32423;45.398;10.874;2023-03-31T04:54:20;100724.66;;;14.18;60.93
46690;BME280;32423;45.398;10.874;2023-03-31T04:57:12;100721.09;;;14.38;60.51
46690;BME280;32423;45.398;10.874;2023-03-31T05:00:04;100739.50;;;14.29;60.62
46690;BME280;32423;45.398;10.874;2023-03-31T05:02:59;100743.44;;;14.07;61.82
46690;BME280;32423;45.398;10.874;2023-03-31T05:05:51;100727.41;;;14.18;61.56
46690;BME280;32423;45.398;10.874;2023-03-31T05:08:43;100713.22;;;14.37;60.87
46690;BME280;32423;45.398;10.874;2023-03-31T05:11:35;100711.00;;;14.18;61.25
46690;BME280;32423;45.398;10.874;2023-03-31T05:14:27;100715.91;;;14.25;61.34
46690;BME280;32423;45.398;10.874;2023-03-31T05:17:24;100712.53;;;14.40;60.84
46690;BME280;32423;45.398;10.874;2023-03-31T05:20:16;100704.56;;;14.47;60.47
46690;BME280;32423;45.398;10.874;2023-03-31T05:23:05;100708.28;;;14.30;60.96
46690;BME280;32423;45.398;10.874;2023-03-31T05:25:58;100701.50;;;14.36;60.76
46690;BME280;32423;45.398;10.874;2023-03-31T05:28:47;100690.75;;;14.43;60.65
46690;BME280;32423;45.398;10.874;2023-03-31T05:31:39;100692.69;;;14.43;60.63
46690;BME280;32423;45.398;10.874;2023-03-31T05:34:31;100685.28;;;14.43;60.75
46690;BME280;32423;45.398;10.874;2023-03-31T05:37:23;100683.44;;;14.35;60.39
46690;BME280;32423;45.398;10.874;2023-03-31T05:40:16;100692.44;;;14.24;61.04
46690;BME280;32423;45.398;10.874;2023-03-31T05:43:08;100694.94;;;14.17;61.12
46690;BME280;32423;45.398;10.874;2023-03-31T05:46:00;100703.22;;;13.96;61.90
46690;BME280;32423;45.398;10.874;2023-03-31T05:48:52;100695.44;;;13.98;62.23
46690;BME280;32423;45.398;10.874;2023-03-31T05:51:44;100701.28;;;13.96;62.40
46690;BME280;32423;45.398;10.874;2023-03-31T05:54:36;100697.53;;;14.13;61.92
46690;BME280;32423;45.398;10.874;2023-03-31T05:57:28;100689.91;;;14.19;61.29
46690;BME280;32423;45.398;10.874;2023-03-31T06:00:18;100673.13;;;14.08;61.65
46690;BME280;32423;45.398;10.874;2023-03-31T06:03:10;100682.59;;;13.98;61.86
46690;BME280;32423;45.398;10.874;2023-03-31T06:06:02;100683.41;;;14.11;61.45
46690;BME280;32423;45.398;10.874;2023-03-31T06:08:54;100682.63;;;14.23;61.08
46690;BME280;32423;45.398;10.874;2023-03-31T06:11:43;100680.81;;;14.27;61.00
46690;BME280;32423;45.398;10.874;2023-03-31T06:14:35;100685.03;;;14.24;61.11
46690;BME280;32423;45.398;10.874;2023-03-31T06:17:27;100684.47;;;14.31;60.72
46690;BME280;32423;45.398;10.874;2023-03-31T06:20:19;100675.84;;;14.41;60.25
46690;BME280;32423;45.398;10.874;2023-03-31T06:23:11;100666.59;;;14.45;59.77
46690;BME280;32423;45.398;10.874;2023-03-31T06:26:07;100667.50;;;14.49;59.90
46690;BME280;32423;45.398;10.874;2023-03-31T06:28:59;100651.19;;;14.53;59.68
46690;BME280;32423;45.398;10.874;2023-03-31T06:31:51;100640.94;;;14.50;59.73
46690;BME280;32423;45.398;10.874;2023-03-31T06:34:43;100643.69;;;14.50;59.87
46690;BME280;32423;45.398;10.874;2023-03-31T06:37:32;100639.13;;;14.54;59.86
46690;BME280;32423;45.398;10.874;2023-03-31T06:40:24;100632.16;;;14.57;59.71
46690;BME280;32423;45.398;10.874;2023-03-31T06:43:16;100638.06;;;14.59;59.77
46690;BME280;32423;45.398;10.874;2023-03-31T06:46:08;100632.03;;;14.53;59.83
46690;BME280;32423;45.398;10.874;2023-03-31T06:49:00;100631.81;;;14.58;59.60
46690;BME280;32423;45.398;10.874;2023-03-31T06:51:52;100631.72;;;14.54;59.64
46690;BME280;32423;45.398;10.874;2023-03-31T06:54:44;100621.47;;;14.51;59.76
46690;BME280;32423;45.398;10.874;2023-03-31T06:57:34;100625.09;;;14.55;59.81
46690;BME280;32423;45.398;10.874;2023-03-31T07:00:26;100625.09;;;14.55;59.89
46690;BME280;32423;45.398;10.874;2023-03-31T07:03:18;100638.06;;;14.59;59.78
46690;BME280;32423;45.398;10.874;2023-03-31T07:06:10;100628.72;;;14.60;59.90
46690;BME280;32423;45.398;10.874;2023-03-31T07:09:02;100611.75;;;14.66;59.66
46690;BME280;32423;45.398;10.874;2023-03-31T07:11:54;100608.66;;;14.68;59.70
46690;BME280;32423;45.398;10.874;2023-03-31T07:14:46;100610.03;;;14.62;59.83
46690;BME280;32423;45.398;10.874;2023-03-31T07:17:38;100611.88;;;14.58;60.16
46690;BME280;32423;45.398;10.874;2023-03-31T07:20:30;100611.66;;;14.63;60.12
46690;BME280;32423;45.398;10.874;2023-03-31T07:23:22;100603.88;;;14.65;59.98
46690;BME280;32423;45.398;10.874;2023-03-31T07:26:14;100613.22;;;14.64;59.90
46690;BME280;32423;45.398;10.874;2023-03-31T07:29:03;100607.88;;;14.67;59.99
46690;BME280;32423;45.398;10.874;2023-03-31T07:31:52;100601.84;;;14.62;60.12
46690;BME280;32423;45.398;10.874;2023-03-31T07:34:44;100600.69;;;14.63;59.81
46690;BME280;32423;45.398;10.874;2023-03-31T07:37:39;100601.47;;;14.63;59.93
46690;BME280;32423;45.398;10.874;2023-03-31T07:40:31;100595.09;;;14.59;60.38
46690;BME280;32423;45.398;10.874;2023-03-31T07:43:21;100604.56;;;14.62;60.28
46690;BME280;32423;45.398;10.874;2023-03-31T07:46:12;100607.41;;;14.65;59.91
46690;BME280;32423;45.398;10.874;2023-03-31T07:49:04;100596.56;;;14.69;59.86
46690;BME280;32423;45.398;10.874;2023-03-31T07:51:56;100589.16;;;14.69;59.97
46690;BME280;32423;45.398;10.874;2023-03-31T07:54:47;100580.59;;;14.71;59.95
46690;BME280;32423;45.398;10.874;2023-03-31T07:57:39;100585.97;;;14.67;60.23
46690;BME280;32423;45.398;10.874;2023-03-31T08:00:31;100579.00;;;14.70;60.05
46690;BME280;32423;45.398;10.874;2023-03-31T08:03:23;100576.97;;;14.67;59.91
46690;BME280;32423;45.398;10.874;2023-03-31T08:06:18;100579.09;;;14.73;59.71
46690;BME280;32423;45.398;10.874;2023-03-31T08:09:12;100582.53;;;14.70;60.07
46690;BME280;32423;45.398;10.874;2023-03-31T08:12:04;100592.44;;;14.75;60.04
46690;BME280;32423;45.398;10.874;2023-03-31T08:14:53;100585.03;;;14.75;60.21
46690;BME280;32423;45.398;10.874;2023-03-31T08:17:45;100591.53;;;14.71;60.46
46690;BME280;32423;45.398;10.874;2023-03-31T08:20:37;100581.16;;;14.76;59.97
46690;BME280;32423;45.398;10.874;2023-03-31T08:23:29;100569.75;;;14.74;60.33
46690;BME280;32423;45.398;10.874;2023-03-31T08:26:21;100569.75;;;14.74;60.50
46690;BME280;32423;45.398;10.874;2023-03-31T08:29:13;100572.94;;;14.76;60.45
46690;BME280;32423;45.398;10.874;2023-03-31T08:32:05;100577.28;;;14.77;60.20
46690;BME280;32423;45.398;10.874;2023-03-31T08:34:55;100576.13;;;14.78;59.88
46690;BME280;32423;45.398;10.874;2023-03-31T08:37:44;100566.44;;;14.81;59.89
46690;BME280;32423;45.398;10.874;2023-03-31T08:40:34;100558.69;;;14.83;60.23
46690;BME280;32423;45.398;10.874;2023-03-31T08:43:26;100538.81;;;14.86;60.24
46690;BME280;32423;45.398;10.874;2023-03-31T08:46:20;100548.25;;;14.88;60.00
46690;BME280;32423;45.398;10.874;2023-03-31T08:49:13;100546.31;;;14.89;60.51
46690;BME280;32423;45.398;10.874;2023-03-31T08:52:05;100544.75;;;14.88;60.63
46690;BME280;32423;45.398;10.874;2023-03-31T08:54:58;100546.13;;;14.82;61.29
46690;BME280;32423;45.398;10.874;2023-03-31T08:57:53;100555.22;;;14.86;60.92
46690;BME280;32423;45.398;10.874;2023-03-31T09:00:55;100569.88;;;14.78;61.45
46690;BME280;32423;45.398;10.874;2023-03-31T09:06:40;100562.19;;;14.83;61.43
46690;BME280;32423;45.398;10.874;2023-03-31T09:15:47;100570.94;;;14.89;61.17
46690;BME280;32423;45.398;10.874;2023-03-31T09:18:38;100556.22;;;14.93;60.87
46690;BME280;32423;45.398;10.874;2023-03-31T09:21:31;100535.22;;;14.97;60.85
46690;BME280;32423;45.398;10.874;2023-03-31T09:24:26;100524.81;;;15.03;60.63
46690;BME280;32423;45.398;10.874;2023-03-31T09:27:16;100517.75;;;15.02;61.22
46690;BME280;32423;45.398;10.874;2023-03-31T09:30:18;100509.63;;;15.06;61.05
46690;BME280;32423;45.398;10.874;2023-03-31T09:33:12;100514.75;;;15.07;60.84
46690;BME280;32423;45.398;10.874;2023-03-31T09:36:07;100506.28;;;15.12;61.16
46690;BME280;32423;45.398;10.874;2023-03-31T09:38:59;100509.03;;;15.12;61.34
46690;BME280;32423;45.398;10.874;2023-03-31T09:41:52;100500.00;;;15.12;61.25
46690;BME280;32423;45.398;10.874;2023-03-31T09:44:47;100490.72;;;15.16;61.24
46690;BME280;32423;45.398;10.874;2023-03-31T09:47:42;100504.22;;;15.09;61.85
46690;BME280;32423;45.398;10.874;2023-03-31T09:50:35;100494.63;;;15.15;61.55
46690;BME280;32423;45.398;10.874;2023-03-31T09:53:31;100488.59;;;15.10;61.95
46690;BME280;32423;45.398;10.874;2023-03-31T09:59:43;100472.53;;;15.24;61.30
46690;BME280;32423;45.398;10.874;2023-03-31T10:02:34;100462.38;;;15.24;61.51
46690;BME280;32423;45.398;10.874;2023-03-31T10:05:38;100455.66;;;15.22;61.63
46690;BME280;32423;45.398;10.874;2023-03-31T10:08:34;100450.97;;;15.22;61.66
46690;BME280;32423;45.398;10.874;2023-03-31T10:11:29;100451.06;;;15.26;61.73
46690;BME280;32423;45.398;10.874;2023-03-31T10:14:22;100437.91;;;15.31;61.39
46690;BME280;32423;45.398;10.874;2023-03-31T10:17:14;100431.69;;;15.34;61.13
46690;BME280;32423;45.398;10.874;2023-03-31T10:20:16;100435.69;;;15.37;61.37
46690;BME280;32423;45.398;10.874;2023-03-31T10:23:17;100436.91;;;15.39;61.46
46690;BME280;32423;45.398;10.874;2023-03-31T10:26:10;100427.56;;;15.40;60.94
46690;BME280;32423;45.398;10.874;2023-03-31T10:29:04;100426.13;;;15.47;60.51
46690;BME280;32423;45.398;10.874;2023-03-31T10:32:08;100423.06;;;15.48;60.34
46690;BME280;32423;45.398;10.874;2023-03-31T10:35:04;100443.94;;;15.53;60.35
46690;BME280;32423;45.398;10.874;2023-03-31T10:37:57;100440.84;;;15.54;60.09
46690;BME280;32423;45.398;10.874;2023-03-31T10:40:53;100434.66;;;15.57;60.18
46690;BME280;32423;45.398;10.874;2023-03-31T10:43:49;100436.31;;;15.62;59.86
46690;BME280;32423;45.398;10.874;2023-03-31T10:49:40;100432.50;;;15.66;59.58
46690;BME280;32423;45.398;10.874;2023-03-31T10:52:32;100422.78;;;15.69;59.61
46690;BME280;32423;45.398;10.874;2023-03-31T10:55:31;100411.81;;;15.69;59.81
46690;BME280;32423;45.398;10.874;2023-03-31T10:58:38;100407.91;;;15.70;60.02
46690;BME280;32423;45.398;10.874;2023-03-31T11:16:39;100353.25;;;24.05;37.40
46690;BME280;32423;45.398;10.874;2023-03-31T11:34:52;100294.53;;;22.90;37.37
46690;BME280;32423;45.398;10.874;2023-03-31T11:37:55;100279.28;;;24.18;35.05
46690;BME280;32423;45.398;10.874;2023-03-31T11:43:45;100273.44;;;25.75;32.31
46690;BME280;32423;45.398;10.874;2023-03-31T11:46:55;100254.09;;;22.93;37.83
46690;BME280;32423;45.398;10.874;2023-03-31T11:49:54;100240.75;;;21.03;41.01
46690;BME280;32423;45.398;10.874;2023-03-31T11:52:52;100244.56;;;21.66;39.36
46690;BME280;32423;45.398;10.874;2023-03-31T11:55:45;100230.81;;;21.45;40.55
46690;BME280;32423;45.398;10.874;2023-03-31T11:58:59;100227.81;;;22.01;39.15
46690;BME280;32423;45.398;10.874;2023-03-31T12:01:57;100206.25;;;22.34;38.92
46690;BME280;32423;45.398;10.874;2023-03-31T12:04:51;100214.31;;;28.00;29.07
46690;BME280;32423;45.398;10.874;2023-03-31T12:07:51;100208.19;;;25.57;31.34
46690;BME280;32423;45.398;10.874;2023-03-31T12:10:48;100209.88;;;25.31;31.88
46690;BME280;32423;45.398;10.874;2023-03-31T12:13:54;100206.16;;;23.94;34.89
46690;BME280;32423;45.398;10.874;2023-03-31T12:16:55;100202.88;;;22.08;38.79
46690;BME280;32423;45.398;10.874;2023-03-31T12:19:55;100196.34;;;21.67;39.55
46690;BME280;32423;45.398;10.874;2023-03-31T12:22:46;100170.81;;;21.27;40.43
46690;BME280;32423;45.398;10.874;2023-03-31T12:25:41;100176.06;;;20.62;41.56
46690;BME280;32423;45.398;10.874;2023-03-31T12:28:35;100168.53;;;20.23;42.29
46690;BME280;32423;45.398;10.874;2023-03-31T12:31:28;100152.75;;;19.99;42.57
46690;BME280;32423;45.398;10.874;2023-03-31T12:34:21;100148.78;;;19.86;43.00
46690;BME280;32423;45.398;10.874;2023-03-31T12:40:34;100130.63;;;19.71;43.84
46690;BME280;32423;45.398;10.874;2023-03-31T12:43:36;100124.63;;;19.47;44.16
46690;BME280;32423;45.398;10.874;2023-03-31T12:49:47;100117.50;;;19.39;44.18
46690;BME280;32423;45.398;10.874;2023-03-31T12:55:50;100107.53;;;19.10;44.15
46690;BME280;32423;45.398;10.874;2023-03-31T12:58:45;100100.00;;;19.00;44.40
46690;BME280;32423;45.398;10.874;2023-03-31T13:01:37;100096.06;;;19.01;44.88
46690;BME280;32423;45.398;10.874;2023-03-31T13:04:46;100081.50;;;18.93;45.12
46690;BME280;32423;45.398;10.874;2023-03-31T13:07:38;100063.75;;;18.91;45.36
46690;BME280;32423;45.398;10.874;2023-03-31T13:10:33;100059.03;;;18.84;45.30
46690;BME280;32423;45.398;10.874;2023-03-31T13:13:59;100068.41;;;18.72;45.63
46690;BME280;32423;45.398;10.874;2023-03-31T13:16:52;100050.28;;;18.71;45.75
46690;BME280;32423;45.398;10.874;2023-03-31T13:19:47;100042.38;;;18.63;45.54
46690;BME280;32423;45.398;10.874;2023-03-31T13:22:39;100034.50;;;18.58;45.83
46690;BME280;32423;45.398;10.874;2023-03-31T13:25:35;100032.03;;;18.49;46.14
46690;BME280;32423;45.398;10.874;2023-03-31T13:28:32;100043.53;;;18.58;45.68
46690;BME280;32423;45.398;10.874;2023-03-31T13:31:25;100038.31;;;18.46;46.53
46690;BME280;32423;45.398;10.874;2023-03-31T14:01:39;99965.81;;;18.21;47.11
46690;BME280;32423;45.398;10.874;2023-03-31T14:04:38;99973.63;;;18.12;46.73
46690;BME280;32423;45.398;10.874;2023-03-31T14:07:45;99976.38;;;18.12;46.79
46690;BME280;32423;45.398;10.874;2023-03-31T14:10:38;99970.88;;;18.15;46.74
46690;BME280;32423;45.398;10.874;2023-03-31T14:13:30;99957.56;;;18.21;46.78
46690;BME280;32423;45.398;10.874;2023-03-31T14:16:22;99949.31;;;18.24;46.51
46690;BME280;32423;45.398;10.874;2023-03-31T14:31:33;99922.84;;;17.99;47.43
46690;BME280;32423;45.398;10.874;2023-03-31T14:37:39;99910.72;;;18.10;46.92
46690;BME280;32423;45.398;10.874;2023-03-31T14:40:30;99891.84;;;18.09;47.16
46690;BME280;32423;45.398;10.874;2023-03-31T14:43:22;99883.16;;;18.03;47.47
46690;BME280;32423;45.398;10.874;2023-03-31T14:46:17;99876.91;;;18.06;47.42
46690;BME280;32423;45.398;10.874;2023-03-31T14:49:22;99875.31;;;18.02;47.57
46690;BME280;32423;45.398;10.874;2023-03-31T14:52:19;99864.69;;;18.04;47.44
46690;BME280;32423;45.398;10.874;2023-03-31T14:55:12;99859.16;;;17.97;47.76
46690;BME280;32423;45.398;10.874;2023-03-31T14:58:05;99851.72;;;18.01;47.47
46690;BME280;32423;45.398;10.874;2023-03-31T15:00:57;99852.88;;;17.92;48.07
46690;BME280;32423;45.398;10.874;2023-03-31T15:03:47;99850.13;;;17.92;48.13
46690;BME280;32423;45.398;10.874;2023-03-31T15:06:39;99839.13;;;17.96;47.92
46690;BME280;32423;45.398;10.874;2023-03-31T15:09:32;99828.91;;;17.97;48.07
46690;BME280;32423;45.398;10.874;2023-03-31T15:12:23;99818.28;;;17.95;48.11
46690;BME280;32423;45.398;10.874;2023-03-31T15:15:13;99817.13;;;17.96;48.02
46690;BME280;32423;45.398;10.874;2023-03-31T15:18:03;99821.03;;;17.91;48.42
46690;BME280;32423;45.398;10.874;2023-03-31T15:20:55;99823.78;;;17.91;48.45
46690;BME280;32423;45.398;10.874;2023-03-31T15:23:47;99824.16;;;17.93;48.60
46690;BME280;32423;45.398;10.874;2023-03-31T15:26:59;99837.13;;;17.93;48.64
46690;BME280;32423;45.398;10.874;2023-03-31T15:29:53;99843.41;;;17.93;48.46
46690;BME280;32423;45.398;10.874;2023-03-31T15:32:44;99837.53;;;17.91;48.68
46690;BME280;32423;45.398;10.874;2023-03-31T15:35:36;99837.50;;;17.88;48.47
46690;BME280;32423;45.398;10.874;2023-03-31T15:38:28;99829.66;;;17.86;48.76
46690;BME280;32423;45.398;10.874;2023-03-31T15:41:21;99822.56;;;17.85;48.79
46690;BME280;32423;45.398;10.874;2023-03-31T15:47:22;99819.38;;;17.76;49.03
46690;BME280;32423;45.398;10.874;2023-03-31T15:50:14;99824.47;;;17.74;48.85
46690;BME280;32423;45.398;10.874;2023-03-31T15:53:18;99820.50;;;17.68;49.09
46690;BME280;32423;45.398;10.874;2023-03-31T15:56:23;99820.88;;;17.63;49.31
46690;BME280;32423;45.398;10.874;2023-03-31T15:59:24;99818.44;;;17.58;49.14
46690;BME280;32423;45.398;10.874;2023-03-31T16:02:13;99813.31;;;17.53;49.29
46690;BME280;32423;45.398;10.874;2023-03-31T16:05:03;99826.25;;;17.49;49.45
46690;BME280;32423;45.398;10.874;2023-03-31T16:07:55;99805.84;;;17.50;49.62
46690;BME280;32423;45.398;10.874;2023-03-31T16:10:48;99811.34;;;17.46;49.84
46690;BME280;32423;45.398;10.874;2023-03-31T16:13:40;99818.00;;;17.45;49.74
46690;BME280;32423;45.398;10.874;2023-03-31T16:16:33;99808.19;;;17.48;49.96
46690;BME280;32423;45.398;10.874;2023-03-31T16:19:22;99804.25;;;17.49;50.06
46690;BME280;32423;45.398;10.874;2023-03-31T16:22:16;99813.69;;;17.48;50.09
46690;BME280;32423;45.398;10.874;2023-03-31T16:25:09;99806.63;;;17.47;50.86
46690;BME280;32423;45.398;10.874;2023-03-31T16:28:01;99797.97;;;17.48;50.50
46690;BME280;32423;45.398;10.874;2023-03-31T16:30:51;99796.81;;;17.53;50.35
46690;BME280;32423;45.398;10.874;2023-03-31T16:33:54;99802.72;;;17.55;50.50
46690;BME280;32423;45.398;10.874;2023-03-31T16:36:47;99791.75;;;17.59;50.83
46690;BME280;32423;45.398;10.874;2023-03-31T16:39:39;99794.50;;;17.59;51.04
46690;BME280;32423;45.398;10.874;2023-03-31T16:42:31;99791.75;;;17.59;51.12
46690;BME280;32423;45.398;10.874;2023-03-31T16:45:23;99796.44;;;17.58;51.34
46690;BME280;32423;45.398;10.874;2023-03-31T16:48:15;99802.41;;;17.60;51.71
46690;BME280;32423;45.398;10.874;2023-03-31T16:51:05;99795.31;;;17.59;51.43
46690;BME280;32423;45.398;10.874;2023-03-31T16:53:54;99789.81;;;17.59;50.49
46690;BME280;32423;45.398;10.874;2023-03-31T16:56:44;99760.72;;;17.58;50.15
46690;BME280;32423;45.398;10.874;2023-03-31T16:59:36;99759.16;;;17.57;49.96
46690;BME280;32423;45.398;10.874;2023-03-31T17:02:28;99756.38;;;17.53;49.72
46690;BME280;32423;45.398;10.874;2023-03-31T17:05:17;99748.50;;;17.45;50.22
46690;BME280;32423;45.398;10.874;2023-03-31T17:08:09;99743.78;;;17.45;49.90
46690;BME280;32423;45.398;10.874;2023-03-31T17:11:13;99740.59;;;17.36;49.61
46690;BME280;32423;45.398;10.874;2023-03-31T17:14:05;99724.84;;;17.30;50.17
46690;BME280;32423;45.398;10.874;2023-03-31T17:16:57;99725.22;;;17.25;50.11
46690;BME280;32423;45.398;10.874;2023-03-31T17:19:49;99742.13;;;17.27;50.17
46690;BME280;32423;45.398;10.874;2023-03-31T17:22:39;99744.09;;;17.30;50.07